createdAt,value
2023-03-22T00:00:54.532Z,1.77
2023-03-22T00:03:21.138Z,1.90
2023-03-22T00:05:47.519Z,1.50
2023-03-22T00:08:14.267Z,1.75
2023-03-22T00:10:41.552Z,1.48
2023-03-22T00:13:09.179Z,1.75
2023-03-22T00:15:36.241Z,1.60
2023-03-22T00:18:05.668Z,1.90
2023-03-22T00:20:37.438Z,1.88
2023-03-22T00:23:04.226Z,1.92
2023-03-22T00:25:30.873Z,2.08
2023-03-22T00:27:57.332Z,2.22
2023-03-22T00:30:23.761Z,1.52
2023-03-22T00:32:50.223Z,1.80
2023-03-22T00:35:16.644Z,1.60
2023-03-22T00:37:43.066Z,1.75
2023-03-22T00:40:11.582Z,2.03
2023-03-22T00:42:38.652Z,2.10
2023-03-22T00:45:05.808Z,1.77
2023-03-22T00:47:32.405Z,1.50
2023-03-22T00:49:58.899Z,1.70
2023-03-22T00:52:25.603Z,1.80
2023-03-22T00:54:52.006Z,1.65
2023-03-22T00:57:18.592Z,1.80
2023-03-22T00:59:45.061Z,1.80
2023-03-22T01:02:13.420Z,1.80
2023-03-22T01:04:46.419Z,1.67
2023-03-22T01:07:17.561Z,1.75
2023-03-22T01:09:44.878Z,1.67
2023-03-22T01:12:11.978Z,1.52
2023-03-22T01:14:38.919Z,1.80
2023-03-22T01:17:07.052Z,1.70
2023-03-22T01:19:37.078Z,1.92
2023-03-22T01:22:04.655Z,1.98
2023-03-22T01:24:31.041Z,1.88
2023-03-22T01:26:57.392Z,1.63
2023-03-22T01:29:24.117Z,1.80
2023-03-22T01:31:51.081Z,2.05
2023-03-22T01:34:17.642Z,1.90
2023-03-22T01:36:44.124Z,1.48
2023-03-22T01:39:10.518Z,2.50
2023-03-22T01:41:37.425Z,1.73
2023-03-22T01:44:14.359Z,1.67
2023-03-22T01:46:41.325Z,1.92
2023-03-22T01:49:12.053Z,1.80
2023-03-22T01:51:38.710Z,1.75
2023-03-22T01:54:10.610Z,1.75
2023-03-22T01:56:39.067Z,2.30
2023-03-22T01:59:06.415Z,1.88
2023-03-22T02:01:33.248Z,1.90
2023-03-22T02:03:59.659Z,1.90
2023-03-22T02:06:26.548Z,1.83
2023-03-22T02:08:57.978Z,1.90
2023-03-22T02:11:43.069Z,1.97
2023-03-22T02:14:14.579Z,1.70
2023-03-22T02:16:48.580Z,1.80
2023-03-22T02:19:33.148Z,1.87
2023-03-22T02:22:14.466Z,2.20
2023-03-22T02:24:59.509Z,2.00
2023-03-22T02:27:32.378Z,1.97
2023-03-22T02:30:21.548Z,1.80
2023-03-22T02:32:51.006Z,1.80
2023-03-22T02:35:20.735Z,1.97
2023-03-22T02:37:47.226Z,2.40
2023-03-22T02:40:21.016Z,2.63
2023-03-22T02:42:56.877Z,2.50
2023-03-22T02:45:27.749Z,2.03
2023-03-22T02:47:54.428Z,2.10
2023-03-22T02:50:29.231Z,2.33
2023-03-22T02:52:57.598Z,1.90
2023-03-22T02:55:23.950Z,2.00
2023-03-22T02:57:54.159Z,2.00
2023-03-22T03:00:20.997Z,1.40
2023-03-22T03:02:49.732Z,1.60
2023-03-22T03:05:17.073Z,2.23
2023-03-22T03:07:47.134Z,1.90
2023-03-22T03:10:15.033Z,2.13
2023-03-22T03:12:41.375Z,1.90
2023-03-22T03:15:18.576Z,2.00
2023-03-22T03:17:50.873Z,1.90
2023-03-22T03:20:29.881Z,1.83
2023-03-22T03:22:59.077Z,2.73
2023-03-22T03:25:28.430Z,2.20
2023-03-22T03:28:02.639Z,2.20
2023-03-22T03:30:32.519Z,2.13
2023-03-22T03:33:04.177Z,2.10
2023-03-22T03:35:39.383Z,2.30
2023-03-22T03:38:13.413Z,1.80
2023-03-22T03:40:41.833Z,1.70
2023-03-22T03:43:08.875Z,2.07
2023-03-22T03:45:36.102Z,1.90
2023-03-22T03:48:04.776Z,1.97
2023-03-22T03:50:31.536Z,2.07
2023-03-22T03:52:58.024Z,1.80
2023-03-22T03:55:24.652Z,1.83
2023-03-22T03:57:50.984Z,1.67
2023-03-22T04:00:17.776Z,1.83
2023-03-22T04:02:44.527Z,1.80
2023-03-22T04:05:11.889Z,1.90
2023-03-22T04:07:38.722Z,2.20
2023-03-22T04:10:05.981Z,1.77
2023-03-22T04:12:52.372Z,1.80
2023-03-22T04:15:18.826Z,1.80
2023-03-22T04:17:46.512Z,1.53
2023-03-22T04:20:13.827Z,1.67
2023-03-22T04:22:40.910Z,1.70
2023-03-22T04:25:13.365Z,1.90
2023-03-22T04:27:40.436Z,1.90
2023-03-22T04:30:10.388Z,2.40
2023-03-22T04:32:37.027Z,1.80
2023-03-22T04:35:03.515Z,1.80
2023-03-22T04:37:33.650Z,1.80
2023-03-22T04:40:00.176Z,1.73
2023-03-22T04:42:26.602Z,1.90
2023-03-22T04:44:53.000Z,1.80
2023-03-22T04:47:19.339Z,2.20
2023-03-22T04:49:45.681Z,1.80
2023-03-22T04:52:12.061Z,1.87
2023-03-22T04:54:38.574Z,2.00
2023-03-22T04:57:05.234Z,2.17
2023-03-22T04:59:31.620Z,2.13
2023-03-22T05:01:58.068Z,2.60
2023-03-22T05:04:24.681Z,2.37
2023-03-22T05:06:51.148Z,2.70
2023-03-22T05:09:17.566Z,2.63
2023-03-22T05:11:44.022Z,1.97
2023-03-22T05:14:10.797Z,2.87
2023-03-22T05:16:40.436Z,2.97
2023-03-22T05:19:13.714Z,8.23
2023-03-22T05:21:41.124Z,6.37
2023-03-22T05:24:07.934Z,5.10
2023-03-22T05:26:38.076Z,4.53
2023-03-22T05:29:05.254Z,3.13
2023-03-22T05:31:34.513Z,2.93
2023-03-22T05:34:01.522Z,2.63
2023-03-22T05:36:29.684Z,2.23
2023-03-22T05:38:56.721Z,2.20
2023-03-22T05:41:23.136Z,2.10
2023-03-22T05:43:50.944Z,1.93
2023-03-22T05:46:17.309Z,2.17
2023-03-22T05:48:43.764Z,2.50
2023-03-22T05:51:13.406Z,2.43
2023-03-22T05:53:39.816Z,2.30
2023-03-22T05:56:09.968Z,1.90
2023-03-22T05:58:36.424Z,2.33
2023-03-22T06:01:07.223Z,2.00
2023-03-22T06:03:33.707Z,3.28
2023-03-22T06:06:00.865Z,8.13
2023-03-22T06:08:27.284Z,5.83
2023-03-22T06:10:54.214Z,4.90
2023-03-22T06:13:21.016Z,4.87
2023-03-22T06:15:47.547Z,4.27
2023-03-22T06:18:13.911Z,3.73
2023-03-22T06:20:41.862Z,3.00
2023-03-22T06:23:08.486Z,2.70
2023-03-22T06:25:35.007Z,2.50
2023-03-22T06:28:01.601Z,2.60
2023-03-22T06:30:28.044Z,3.13
2023-03-22T06:32:54.900Z,2.40
2023-03-22T06:35:21.334Z,3.10
2023-03-22T06:37:47.743Z,2.97
2023-03-22T06:40:15.375Z,2.37
2023-03-22T06:42:41.774Z,2.50
2023-03-22T06:45:08.733Z,2.67
2023-03-22T06:47:35.206Z,4.97
2023-03-22T06:50:01.861Z,3.30
2023-03-22T06:52:28.207Z,3.30
2023-03-22T06:54:54.949Z,2.30
2023-03-22T06:57:21.566Z,2.67
2023-03-22T06:59:48.026Z,2.00
2023-03-22T07:02:14.468Z,2.20
2023-03-22T07:04:40.944Z,2.40
2023-03-22T07:07:07.318Z,1.93
2023-03-22T07:09:33.846Z,2.00
2023-03-22T07:12:00.256Z,2.60
2023-03-22T07:14:26.887Z,2.45
2023-03-22T07:16:53.237Z,2.10
2023-03-22T07:19:19.658Z,2.30
2023-03-22T07:21:46.009Z,2.55
2023-03-22T07:24:13.580Z,2.45
2023-03-22T07:26:40.765Z,2.47
2023-03-22T07:29:07.152Z,3.20
2023-03-22T07:31:37.754Z,2.50
2023-03-22T07:34:04.529Z,3.20
2023-03-22T07:36:31.017Z,2.65
2023-03-22T07:38:57.449Z,2.17
2023-03-22T07:41:24.137Z,2.28
2023-03-22T07:43:56.632Z,2.17
2023-03-22T07:46:24.816Z,1.95
2023-03-22T07:48:51.282Z,2.13
2023-03-22T07:51:19.139Z,2.05
2023-03-22T07:53:45.626Z,2.03
2023-03-22T07:56:11.948Z,2.17
2023-03-22T07:58:38.409Z,2.50
2023-03-22T08:01:09.002Z,2.15
2023-03-22T08:03:36.358Z,2.45
2023-03-22T08:06:07.677Z,3.00
2023-03-22T08:08:34.827Z,2.67
2023-03-22T08:11:01.274Z,2.25
2023-03-22T08:13:27.609Z,2.50
2023-03-22T08:15:54.046Z,2.90
2023-03-22T08:18:20.654Z,2.70
2023-03-22T08:20:47.164Z,2.20
2023-03-22T08:23:16.910Z,2.60
2023-03-22T08:25:43.500Z,2.92
2023-03-22T08:28:10.483Z,3.30
2023-03-22T08:30:37.308Z,3.20
2023-03-22T08:33:04.015Z,2.83
2023-03-22T08:35:30.504Z,2.22
2023-03-22T08:37:56.969Z,2.30
2023-03-22T08:40:23.527Z,1.98
2023-03-22T08:42:50.402Z,1.77
2023-03-22T08:45:17.290Z,1.70
2023-03-22T08:47:44.218Z,1.75
2023-03-22T08:50:11.442Z,1.98
2023-03-22T08:52:37.986Z,1.73
2023-03-22T08:55:04.951Z,1.70
2023-03-22T08:57:31.542Z,2.00
2023-03-22T08:59:57.997Z,2.17
2023-03-22T09:02:24.706Z,1.92
2023-03-22T09:04:51.496Z,1.88
2023-03-22T09:07:18.861Z,1.80
2023-03-22T09:09:45.227Z,1.50
2023-03-22T09:12:11.580Z,1.70
2023-03-22T09:14:38.334Z,1.95
2023-03-22T09:17:05.200Z,1.90
2023-03-22T09:19:31.714Z,2.45
2023-03-22T09:21:58.214Z,1.63
2023-03-22T09:24:25.608Z,1.40
2023-03-22T09:26:51.972Z,1.77
2023-03-22T09:29:19.432Z,1.48
2023-03-22T09:31:48.901Z,1.30
2023-03-22T09:34:15.686Z,1.48
2023-03-22T09:36:42.395Z,1.50
2023-03-22T09:39:09.950Z,1.30
2023-03-22T09:41:38.058Z,1.20
2023-03-22T09:44:06.467Z,2.85
2023-03-22T09:46:37.941Z,1.70
2023-03-22T09:49:06.138Z,1.33
2023-03-22T09:51:38.722Z,1.30
2023-03-22T09:54:11.012Z,1.48
2023-03-22T09:56:37.444Z,1.77
2023-03-22T09:59:22.041Z,1.70
2023-03-22T10:01:55.481Z,1.77
2023-03-22T10:04:31.489Z,1.50
2023-03-22T10:07:04.023Z,1.40
2023-03-22T10:09:35.136Z,1.20
2023-03-22T10:12:07.312Z,1.70
2023-03-22T10:14:41.436Z,1.70
2023-03-22T10:17:14.512Z,1.65
2023-03-22T10:20:03.241Z,2.15
2023-03-22T10:22:32.277Z,1.60
2023-03-22T10:24:59.973Z,1.85
2023-03-22T10:27:27.020Z,1.48
2023-03-22T10:29:55.827Z,1.60
2023-03-22T10:32:29.550Z,1.80
2023-03-22T10:34:56.314Z,1.75
2023-03-22T10:37:24.892Z,1.67
2023-03-22T10:39:53.654Z,1.50
2023-03-22T10:42:21.882Z,1.38
2023-03-22T10:44:48.245Z,1.70
2023-03-22T10:47:17.167Z,1.52
2023-03-22T10:49:49.756Z,1.52
2023-03-22T10:52:26.334Z,1.75
2023-03-22T10:54:52.780Z,1.88
2023-03-22T10:57:19.201Z,1.65
2023-03-22T10:59:49.684Z,1.67
2023-03-22T11:02:27.648Z,1.50
2023-03-22T11:04:56.318Z,2.85
2023-03-22T11:07:36.444Z,1.63
2023-03-22T11:10:08.632Z,1.48
2023-03-22T11:12:46.852Z,1.50
2023-03-22T11:15:22.092Z,2.13
2023-03-22T11:17:48.552Z,1.75
2023-03-22T11:20:19.184Z,1.70
2023-03-22T11:22:47.031Z,1.60
2023-03-22T11:25:26.406Z,1.40
2023-03-22T11:27:53.338Z,1.45
2023-03-22T11:30:26.862Z,1.50
2023-03-22T11:33:13.515Z,1.20
2023-03-22T11:35:43.931Z,1.40
2023-03-22T11:38:22.397Z,1.42
2023-03-22T11:40:52.677Z,1.33
2023-03-22T11:43:24.112Z,1.10
2023-03-22T11:45:53.104Z,1.30
2023-03-22T11:48:31.599Z,1.23
2023-03-22T11:51:08.844Z,1.30
2023-03-22T11:53:37.291Z,1.33
2023-03-22T11:56:07.441Z,1.23
2023-03-22T11:58:39.836Z,1.40
2023-03-22T12:01:07.429Z,1.20
2023-03-22T12:03:38.854Z,1.25
2023-03-22T12:06:21.529Z,1.13
2023-03-22T12:08:56.533Z,1.17
2023-03-22T12:11:25.807Z,1.30
2023-03-22T12:13:59.046Z,1.30
2023-03-22T12:16:28.724Z,1.20
2023-03-22T12:19:01.521Z,1.25
2023-03-22T12:21:28.708Z,1.33
2023-03-22T12:23:58.881Z,1.30
2023-03-22T12:26:26.392Z,1.50
2023-03-22T12:28:58.967Z,1.45
2023-03-22T12:31:27.787Z,1.42
2023-03-22T12:33:56.448Z,1.50
2023-03-22T12:36:34.844Z,1.63
2023-03-22T12:39:02.340Z,1.80
2023-03-22T12:41:28.679Z,1.65
2023-03-22T12:44:02.974Z,1.50
2023-03-22T12:46:31.510Z,1.63
2023-03-22T12:49:02.878Z,1.50
2023-03-22T12:51:29.446Z,1.50
2023-03-22T12:53:57.418Z,1.50
2023-03-22T12:56:30.000Z,1.58
2023-03-22T12:58:58.254Z,1.70
2023-03-22T13:01:30.403Z,1.67
2023-03-22T13:03:57.791Z,1.55
2023-03-22T13:06:32.801Z,1.40
2023-03-22T13:09:02.280Z,1.60
2023-03-22T13:11:28.763Z,1.50
2023-03-22T13:13:55.185Z,1.38
2023-03-22T13:16:22.820Z,1.48
2023-03-22T13:18:49.435Z,1.77
2023-03-22T13:21:16.441Z,1.60
2023-03-22T13:23:57.952Z,1.50
2023-03-22T13:26:47.329Z,1.63
2023-03-22T13:29:21.943Z,1.67
2023-03-22T13:31:51.442Z,1.70
2023-03-22T13:34:29.891Z,1.60
2023-03-22T13:36:56.925Z,2.20
2023-03-22T13:39:25.341Z,1.92
2023-03-22T13:42:11.096Z,1.88
2023-03-22T13:44:42.934Z,1.83
2023-03-22T13:47:29.828Z,1.80
2023-03-22T13:49:59.954Z,2.53
2023-03-22T13:52:34.990Z,1.80
2023-03-22T13:55:01.393Z,2.28
2023-03-22T13:57:47.921Z,1.90
2023-03-22T14:00:20.764Z,1.90
2023-03-22T14:02:48.665Z,2.00
2023-03-22T14:05:16.433Z,1.55
2023-03-22T14:07:45.146Z,1.70
2023-03-22T14:10:26.788Z,2.03
2023-03-22T14:12:59.280Z,1.60
2023-03-22T14:15:31.373Z,1.67
2023-03-22T14:18:00.678Z,1.60
2023-03-22T14:20:30.741Z,1.58
